AF6127 / F-HBNI 7700 Squawk Report (22nd of April, 2018)

Aircraft A320 Reg No. F-HBNI Age 7 years old
Model A320 Jet engines 2 First flight 05-09-11
Registered 24-09-11 Rollout 09-11 Delivered 24-09-11
Construction No. 4820 Line No. N/A Series 214
ADSHEX 3985A8 Airline name Air France Owner N/A
Airfield based Paris-Charles de Gaulle~Val-d'Oise~F First tracked 2011-09-24 08:46:01

Flight history for F-HBNI

Route Flight No Date Playback
Orly (ORY) - Blagnac (TLS) AF6124 2018-12-19 15:22:00
Mediterranee (MPL) - Orly (ORY) AF7553 2018-12-18 19:59:00
Orly (ORY) - Mediterranee (MPL) AF7552 2018-12-18 18:02:00
Provence (MRS) - Orly (ORY) AF6015 2018-12-18 17:01:00
Orly (ORY) - Provence (MRS) AF6012 2018-12-18 13:53:00
Saint Exupery (LYS) - Orly (ORY) AF7417 2018-12-18 12:51:00
Orly (ORY) - Saint Exupery (LYS) AF7400 2018-12-18 09:54:00
Provence (MRS) - Orly (ORY) AF6003 2018-12-18 08:17:00
Charles De Gaulle (CDG) - Provence (MRS) AF7670 2018-12-18 06:34:00
Provence (MRS) - Charles De Gaulle (CDG) AF7671 2018-12-17 19:40:00
Orly (ORY) - Provence (MRS) AF6020 2018-12-17 18:16:00
Le Palyvestre (TLN) - Orly (ORY) AF7507 2018-12-17 16:16:00
Orly (ORY) - Le Palyvestre (TLN) AF7506 2018-12-17 12:51:00
Blagnac (TLS) - Orly (ORY) AF6117 2018-12-17 11:48:00
Saint Exupery (LYS) - Blagnac (TLS) A54212 2018-12-17 09:35:00
Blagnac (TLS) - Saint Exupery (LYS) A54211 2018-12-17 07:48:00
Orly (ORY) - Blagnac (TLS) AF6142 2018-12-17 05:59:00
???? AF367 2018-12-16 17:39:00
Merignac (BOD) - Charles De Gaulle (CDG) AF7629 2018-12-16 16:11:00
Charles De Gaulle (CDG) - Merignac (BOD) AF7624 2018-12-16 15:05:00
Time Lat Lon Altitude Heading Speed Vertical Rate
2018-04-22 13:47:18 GMT 48.719849 2.361031 0 253 46 0
2018-04-22 13:46:21 GMT 48.724030 2.383690 0 253 105 0
2018-04-22 13:46:16 GMT 48.724773 2.387683 0 253 130 0
2018-04-22 13:46:07 GMT 48.726242 2.395513 325 255 134 -640
2018-04-22 13:45:56 GMT 48.727951 2.404994 450 255 132 -576
2018-04-22 13:45:48 GMT 48.729309 2.412344 525 254 131 -832
2018-04-22 13:45:44 GMT 48.730137 2.416703 600 255 129 -576
2018-04-22 13:45:35 GMT 48.731487 2.424003 675 254 129 -768
2018-04-22 13:45:32 GMT 48.731861 2.425955 700 255 128 -960
2018-04-22 13:45:22 GMT 48.733536 2.435351 800 254 139 -576
2018-04-22 13:45:14 GMT 48.735077 2.443472 925 254 139 -1088
2018-04-22 13:45:11 GMT 48.735397 2.445181 975 254 140 -768
2018-04-22 13:45:03 GMT 48.737076 2.453854 1,100 254 151 -960
2018-04-22 13:45:00 GMT 48.737679 2.456601 1,150 256 154 -1920
2018-04-22 13:44:53 GMT 48.738831 2.463332 1,325 257 157 -960
2018-04-22 13:44:50 GMT 48.739353 2.466720 1,375 255 158 -1856
2018-04-22 13:44:43 GMT 48.740799 2.474177 1,650 255 163 -1536
2018-04-22 13:44:40 GMT 48.741531 2.478051 1,900 251 165 -2560
2018-04-22 13:44:34 GMT 48.742950 2.484460 1,975 252 164 -2624
2018-04-22 13:44:31 GMT 48.743732 2.488042 2,125 252 166 -2688
2018-04-22 13:44:28 GMT 48.744690 2.492206 2,275 255 169 -2432
2018-04-22 13:44:22 GMT 48.745789 2.498615 2,475 262 173 -4032
2018-04-22 13:44:19 GMT 48.746109 2.501080 2,550 259 175 -3584
2018-04-22 13:44:13 GMT 48.746944 2.508930 2,950 267 171 -3712
2018-04-22 13:44:09 GMT 48.747116 2.513968 3,425 275 171 -3456
2018-04-22 13:44:02 GMT 48.746475 2.521855 3,650 289 171 -3648
2018-04-22 13:43:59 GMT 48.745548 2.525988 3,775 294 174 -3520
2018-04-22 13:43:54 GMT 48.743408 2.532419 4,100 305 176 -3520
2018-04-22 13:43:51 GMT 48.742264 2.534884 4,250 315 178 -3072
2018-04-22 13:43:48 GMT 48.740891 2.537119 4,400 322 181 -2880
2018-04-22 13:43:43 GMT 48.737492 2.540877 4,650 337 190 -2176
2018-04-22 13:43:40 GMT 48.735809 2.542067 4,775 349 199 -1856
2018-04-22 13:43:37 GMT 48.731907 2.543696 4,850 0 212 -1088
2018-04-22 13:43:34 GMT 48.730000 2.544058 4,875 358 209 -1088
2018-04-22 13:43:30 GMT 48.725342 2.543913 4,950 6 221 -576
2018-04-22 13:43:26 GMT 48.721252 2.543053 5,000 10 228 -192
2018-04-22 13:43:21 GMT 48.716404 2.541383 5,075 16 245 -1216
2018-04-22 13:43:17 GMT 48.713100 2.540010 5,075 19 250 -1408
2018-04-22 13:43:13 GMT 48.708675 2.537697 5,175 20 255 -1664
2018-04-22 13:43:10 GMT 48.703812 2.535025 5,325 19 261 -1408
2018-04-22 13:43:07 GMT 48.702019 2.534011 5,325 19 263 -1600
2018-04-22 13:43:04 GMT 48.697643 2.531626 5,425 19 272 -1792
2018-04-22 13:42:59 GMT 48.690941 2.528012 5,550 19 283 -1536
2018-04-22 13:42:56 GMT 48.689117 2.526996 5,700 19 287 -1280
2018-04-22 13:42:53 GMT 48.684704 2.524615 5,675 19 289 -1280
2018-04-22 13:42:49 GMT 48.678864 2.521503 5,775 19 294 -1088
2018-04-22 13:42:46 GMT 48.675980 2.519883 5,825 19 299 -1024
2018-04-22 13:42:43 GMT 48.671947 2.517748 5,875 19 307 -512
2018-04-22 13:42:39 GMT 48.665524 2.514351 5,900 19 311 -576
2018-04-22 13:42:36 GMT 48.662659 2.512841 5,925 19 317 -1024
2018-04-22 13:42:32 GMT 48.656120 2.509436 6,000 19 325 -1152
2018-04-22 13:42:29 GMT 48.652721 2.507557 6,050 19 328 -1152
2018-04-22 13:42:25 GMT 48.647690 2.504953 6,175 19 334 -1280
2018-04-22 13:42:21 GMT 48.641098 2.501502 6,250 19 342 -1280
2018-04-22 13:42:18 GMT 48.634460 2.498052 6,325 19 349 -960
2018-04-22 13:42:15 GMT 48.632309 2.496925 6,400 19 349 -960
2018-04-22 13:42:10 GMT 48.625214 2.493263 6,400 18 351 -1024
2018-04-22 13:42:07 GMT 48.620041 2.490587 6,500 18 357 -1152
2018-04-22 13:42:03 GMT 48.612213 2.486572 6,550 18 360 -1152
2018-04-22 13:41:59 GMT 48.607613 2.484139 6,600 18 362 -1088
2018-04-22 13:41:56 GMT 48.602863 2.481754 6,650 18 366 -576
2018-04-22 13:41:52 GMT 48.596020 2.478212 6,725 18 376 -576
2018-04-22 13:41:49 GMT 48.591156 2.475727 6,725 18 378 -576
2018-04-22 13:41:44 GMT 48.582184 2.471079 6,775 18 384 -640
2018-04-22 13:41:40 GMT 48.577122 2.468527 6,825 18 391 -576
2018-04-22 13:41:37 GMT 48.572891 2.466290 6,925 18 391 -512
2018-04-22 13:41:32 GMT 48.561081 2.460163 6,925 18 391 -448
2018-04-22 13:41:29 GMT 48.556732 2.457902 6,925 18 391 -384
2018-04-22 13:41:25 GMT 48.551144 2.455083 6,975 18 390 -256
2018-04-22 13:41:21 GMT 48.542858 2.450746 7,000 18 390 -64
2018-04-22 13:41:16 GMT 48.534439 2.446430 7,000 18 389 0
2018-04-22 13:41:11 GMT 48.527344 2.442768 7,000 18 389 0
2018-04-22 13:41:08 GMT 48.521118 2.439543 7,000 18 389 0
2018-04-22 13:41:05 GMT 48.515808 2.436782 7,000 18 389 0
2018-04-22 13:41:02 GMT 48.511063 2.434411 7,000 18 389 0
2018-04-22 13:40:58 GMT 48.503128 2.430303 7,000 18 389 0
2018-04-22 13:40:54 GMT 48.497517 2.427400 7,000 18 390 0
2018-04-22 13:40:49 GMT 48.489532 2.423260 6,975 19 390 0
2018-04-22 13:40:46 GMT 48.482853 2.419666 7,000 19 391 0
2018-04-22 13:40:41 GMT 48.474098 2.414824 7,000 21 392 0
2018-04-22 13:40:34 GMT 48.462975 2.408030 6,975 25 394 0
2018-04-22 13:40:31 GMT 48.458862 2.405231 7,000 24 393 0
2018-04-22 13:40:28 GMT 48.454147 2.401992 6,975 27 394 0
2018-04-22 13:40:25 GMT 48.448380 2.397766 7,000 27 394 0
2018-04-22 13:40:21 GMT 48.440735 2.391921 7,000 27 394 0
2018-04-22 13:40:17 GMT 48.436066 2.388225 7,000 27 394 0
2018-04-22 13:40:10 GMT 48.423916 2.378829 6,975 27 394 0
2018-04-22 13:40:07 GMT 48.419495 2.375441 6,975 27 394 0
2018-04-22 13:40:01 GMT 48.407951 2.366470 6,975 27 394 0
2018-04-22 13:39:58 GMT 48.405121 2.364244 6,975 27 394 0
2018-04-22 13:39:47 GMT 48.387680 2.350722 7,000 27 394 0
2018-04-22 13:39:40 GMT 48.375038 2.340955 7,000 27 394 0
2018-04-22 13:39:37 GMT 48.369003 2.336285 7,000 27 394 0
2018-04-22 13:39:32 GMT 48.361725 2.330721 7,000 27 394 0
2018-04-22 13:39:26 GMT 48.353210 2.324101 7,000 27 394 0
2018-04-22 13:39:22 GMT 48.347076 2.319453 7,000 27 394 0
2018-04-22 13:39:19 GMT 48.340172 2.314068 7,000 27 393 0
2018-04-22 13:39:16 GMT 48.337563 2.312044 7,000 27 393 0
2018-04-22 13:39:13 GMT 48.332840 2.308467 7,000 27 393 0
2018-04-22 13:39:08 GMT 48.324017 2.301636 6,975 27 394 0
2018-04-22 13:39:04 GMT 48.316727 2.296002 6,975 27 394 0
2018-04-22 13:38:56 GMT 48.302929 2.285445 6,975 27 394 0
2018-04-22 13:38:53 GMT 48.298645 2.282193 6,975 27 394 0
2018-04-22 13:38:48 GMT 48.290451 2.275931 6,975 27 393 0
2018-04-22 13:38:42 GMT 48.282623 2.269804 6,975 27 394 0
2018-04-22 13:38:36 GMT 48.272110 2.261738 6,975 27 393 0
2018-04-22 13:38:31 GMT 48.259727 2.252270 6,975 27 393 0
2018-04-22 13:38:23 GMT 48.249847 2.244662 6,975 27 393 0
2018-04-22 13:38:15 GMT 48.237148 2.234923 7,000 27 392 -192
2018-04-22 13:38:07 GMT 48.224442 2.225154 7,025 27 391 -320
2018-04-22 13:38:04 GMT 48.221043 2.222563 7,200 27 392 -704
2018-04-22 13:38:01 GMT 48.213272 2.216562 7,075 27 393 -960
2018-04-22 13:37:52 GMT 48.201187 2.207266 7,200 27 394 -1024
2018-04-22 13:37:44 GMT 48.187988 2.197121 7,350 27 397 -1024
2018-04-22 13:37:35 GMT 48.173607 2.186062 7,500 27 398 -1088
2018-04-22 13:37:31 GMT 48.167274 2.181220 7,575 27 401 -1152
2018-04-22 13:37:24 GMT 48.153992 2.171036 7,725 27 402 -1216
2018-04-22 13:37:21 GMT 48.148682 2.166985 7,800 27 402 -1600
2018-04-22 13:37:13 GMT 48.135666 2.157053 8,000 27 404 -2176
2018-04-22 13:37:10 GMT 48.130096 2.152771 8,100 27 404 -2496
2018-04-22 13:37:03 GMT 48.118378 2.143776 8,400 27 405 -3264
2018-04-22 13:36:59 GMT 48.112762 2.139447 8,575 27 407 -3200
2018-04-22 13:36:50 GMT 48.098831 2.128326 9,000 28 410 -2624
2018-04-22 13:36:46 GMT 48.093155 2.123795 9,150 28 410 -2496
2018-04-22 13:36:39 GMT 48.079422 2.112602 9,450 28 413 -2240
2018-04-22 13:36:32 GMT 48.067142 2.102614 9,725 28 416 -1984
2018-04-22 13:36:25 GMT 48.055939 2.093445 9,900 28 417 -1088
2018-04-22 13:36:21 GMT 48.049713 2.088364 9,975 28 420 0
2018-04-22 13:36:17 GMT 48.042702 2.082613 9,975 28 419 0
2018-04-22 13:36:11 GMT 48.032040 2.073881 10,000 28 420 0
2018-04-22 13:36:04 GMT 48.021423 2.065224 9,975 28 423 -192
2018-04-22 13:36:00 GMT 48.014282 2.059456 9,975 28 421 0
2018-04-22 13:35:54 GMT 48.003616 2.050735 9,975 28 421 0
2018-04-22 13:35:49 GMT 47.996155 2.044693 9,975 28 421 0
2018-04-22 13:35:46 GMT 47.991119 2.040640 9,975 28 422 0
2018-04-22 13:35:43 GMT 47.985489 2.036110 9,975 28 423 0
2018-04-22 13:35:40 GMT 47.978485 2.030411 9,975 28 423 0
2018-04-22 13:35:35 GMT 47.970016 2.023544 9,975 28 422 0
2018-04-22 13:35:32 GMT 47.968124 2.022048 10,000 28 422 0
2018-04-22 13:35:29 GMT 47.960358 2.015785 9,975 28 422 0
2018-04-22 13:35:22 GMT 47.949554 2.006996 10,000 28 423 -192
2018-04-22 13:35:19 GMT 47.942551 2.001366 10,000 28 423 -192
2018-04-22 13:35:10 GMT 47.929138 1.990517 10,050 28 422 -448
2018-04-22 13:35:07 GMT 47.924149 1.986534 10,075 28 423 -640
2018-04-22 13:35:00 GMT 47.910828 1.975822 10,175 28 423 -896
2018-04-22 13:34:57 GMT 47.906860 1.972680 10,200 28 423 -896
2018-04-22 13:34:50 GMT 47.892384 1.961060 10,375 28 423 -960
2018-04-22 13:34:46 GMT 47.887756 1.957352 10,375 28 423 -1024
2018-04-22 13:34:39 GMT 47.873714 1.946059 10,525 28 425 -1024
2018-04-22 13:34:36 GMT 47.869263 1.942520 10,550 28 425 -960
2018-04-22 13:34:31 GMT 47.861069 1.935997 10,675 28 426 -896
2018-04-22 13:34:28 GMT 47.855049 1.931199 10,750 28 426 -896
2018-04-22 13:34:25 GMT 47.849625 1.926865 10,725 28 426 -896
2018-04-22 13:34:18 GMT 47.839687 1.918945 10,850 28 426 -896
2018-04-22 13:34:14 GMT 47.832424 1.913170 10,875 27 426 -896
2018-04-22 13:34:10 GMT 47.824741 1.907114 10,950 27 427 -960
2018-04-22 13:34:04 GMT 47.813942 1.898663 11,050 27 428 -1024
2018-04-22 13:34:00 GMT 47.806496 1.892818 11,125 27 429 -960
2018-04-22 13:33:57 GMT 47.802887 1.889923 11,275 27 429 -960
2018-04-22 13:33:53 GMT 47.795277 1.883944 11,275 27 430 -1024
2018-04-22 13:33:48 GMT 47.786682 1.877220 11,325 27 430 -1024
2018-04-22 13:33:44 GMT 47.778488 1.870766 11,400 27 432 -1024
2018-04-22 13:33:41 GMT 47.774605 1.867676 11,400 27 432 -1024
2018-04-22 13:33:38 GMT 47.768784 1.863144 11,475 27 432 -1024
2018-04-22 13:33:34 GMT 47.760361 1.856478 11,575 27 432 -1024
2018-04-22 13:33:31 GMT 47.755234 1.852432 11,625 27 433 -1088
2018-04-22 13:33:27 GMT 47.749420 1.847886 11,950 27 441 -2624
2018-04-22 13:33:22 GMT 47.739716 1.840279 12,075 27 435 -1152
2018-04-22 13:33:16 GMT 47.729961 1.832604 11,875 27 435 -1152
2018-04-22 13:33:11 GMT 47.720810 1.825447 12,300 27 436 -1408
2018-04-22 13:33:07 GMT 47.713947 1.820068 12,075 27 436 -1408
2018-04-22 13:33:04 GMT 47.707306 1.814873 12,250 27 441 -2624
2018-04-22 13:33:01 GMT 47.702591 1.811165 12,300 27 440 -2304
2018-04-22 13:32:56 GMT 47.693047 1.803730 12,475 27 442 -2752
2018-04-22 13:32:50 GMT 47.683319 1.796053 13,200 27 444 -3712
2018-04-22 13:32:42 GMT 47.668980 1.784856 13,200 27 442 -4096
2018-04-22 13:32:38 GMT 47.661713 1.779236 13,475 27 442 -4096
2018-04-22 13:32:32 GMT 47.649612 1.769785 13,900 27 441 -3712
2018-04-22 13:32:29 GMT 47.644493 1.765771 14,075 27 441 -3648
2018-04-22 13:32:24 GMT 47.634903 1.758376 14,350 27 442 -3200
2018-04-22 13:32:18 GMT 47.624771 1.750465 14,675 27 445 -3136
2018-04-22 13:32:13 GMT 47.615936 1.743530 14,925 27 446 -3200
2018-04-22 13:32:09 GMT 47.609161 1.738312 16,050 27 455 -2240
2018-04-22 13:32:03 GMT 47.596985 1.728836 15,450 27 450 -2752
2018-04-22 13:31:59 GMT 47.590073 1.723480 15,625 27 451 -2560
2018-04-22 13:31:54 GMT 47.580322 1.715858 15,850 27 454 -2368
2018-04-22 13:31:50 GMT 47.572952 1.710159 16,025 27 454 -2304
2018-04-22 13:31:47 GMT 47.567734 1.706108 16,200 27 457 -1984
2018-04-22 13:31:44 GMT 47.562836 1.702263 16,400 27 459 -1664
2018-04-22 13:31:36 GMT 47.545166 1.688530 16,475 27 461 -1600
2018-04-22 13:31:33 GMT 47.539658 1.684289 16,550 27 462 -1600
2018-04-22 13:31:24 GMT 47.523788 1.671982 16,875 27 464 -1664
2018-04-22 13:31:21 GMT 47.517078 1.666753 16,875 27 465 -1728
2018-04-22 13:31:15 GMT 47.506325 1.658443 17,125 27 466 -2432
2018-04-22 13:31:11 GMT 47.500397 1.653854 17,175 27 478 -3072
2018-04-22 13:31:03 GMT 47.484772 1.641752 17,625 27 471 -3392
2018-04-22 13:31:00 GMT 47.478256 1.636681 17,750 27 471 -3520
2018-04-22 13:30:51 GMT 47.460751 1.623089 18,275 27 473 -3456
2018-04-22 13:30:42 GMT 47.442856 1.609222 18,825 27 475 -3328
2018-04-22 13:30:39 GMT 47.437614 1.605131 18,950 27 477 -3328
2018-04-22 13:30:32 GMT 47.421555 1.592595 19,375 27 481 -3072
2018-04-22 13:30:21 GMT 47.402142 1.577524 20,000 27 484 -3648
2018-04-22 13:30:18 GMT 47.398727 1.574890 20,675 26 485 -3520
2018-04-22 13:30:10 GMT 47.378960 1.560199 20,650 25 489 -3072
2018-04-22 13:30:07 GMT 47.370987 1.554428 20,800 25 490 -2944
2018-04-22 13:29:59 GMT 47.357033 1.544424 21,275 26 495 -2240
2018-04-22 13:29:54 GMT 47.348793 1.538508 22,175 21 505 -1344
2018-04-22 13:29:51 GMT 47.342422 1.533897 21,400 26 500 -1984
2018-04-22 13:29:48 GMT 47.334503 1.528156 21,700 26 503 -1984
2018-04-22 13:29:45 GMT 47.327751 1.523226 21,600 26 501 -1984
2018-04-22 13:29:39 GMT 47.315136 1.514071 21,925 25 505 -1600
2018-04-22 13:29:36 GMT 47.308640 1.509453 22,075 21 505 -1344
2018-04-22 13:29:27 GMT 47.291611 1.497780 22,125 21 505 -1344
2018-04-22 13:29:23 GMT 47.283295 1.492662 22,225 21 505 -1344
2018-04-22 13:29:13 GMT 47.260811 1.481535 22,500 14 497 -2432
2018-04-22 13:29:02 GMT 47.235397 1.472992 22,975 11 501 -3520
2018-04-22 13:28:55 GMT 47.219471 1.468154 23,375 11 503 -3328
2018-04-22 13:28:51 GMT 47.211456 1.465714 23,600 11 505 -3328
2018-04-22 13:28:47 GMT 47.201687 1.462731 24,550 11 506 -4544
2018-04-22 13:28:40 GMT 47.184860 1.457611 24,550 11 504 -5440
2018-04-22 13:28:37 GMT 47.179203 1.455900 24,625 11 503 -5184
2018-04-22 13:28:34 GMT 47.172825 1.453928 25,275 11 504 -3776
2018-04-22 13:28:29 GMT 47.161057 1.450401 25,300 11 504 -4096
2018-04-22 13:28:26 GMT 47.150894 1.447311 27,275 11 503 -3456
2018-04-22 13:28:22 GMT 47.145218 1.445595 26,675 11 504 -4544
2018-04-22 13:28:19 GMT 47.139446 1.443857 26,175 11 503 -2944
2018-04-22 13:28:16 GMT 47.131767 1.441533 26,125 11 503 -4288
2018-04-22 13:28:09 GMT 47.113148 1.435899 26,675 11 504 -4096
2018-04-22 13:28:06 GMT 47.107361 1.434128 26,900 11 503 -3712
2018-04-22 13:28:01 GMT 47.098206 1.431381 27,150 11 503 -3648
2018-04-22 13:27:56 GMT 47.084793 1.427330 27,825 11 503 -1792
2018-04-22 13:27:53 GMT 47.077423 1.425064 27,825 11 503 -1920
2018-04-22 13:27:49 GMT 47.066299 1.421700 27,825 11 503 -1920
2018-04-22 13:27:45 GMT 47.059433 1.419640 27,975 11 504 -768
2018-04-22 13:27:41 GMT 47.048531 1.416321 27,950 11 506 0
2018-04-22 13:27:34 GMT 47.032238 1.411391 27,975 11 506 0
2018-04-22 13:27:30 GMT 47.025394 1.409278 28,000 11 506 0
2018-04-22 13:27:22 GMT 47.007248 1.403847 27,975 11 505 0
2018-04-22 13:27:18 GMT 46.998596 1.401237 27,975 11 505 0
2018-04-22 13:27:14 GMT 46.989223 1.398362 27,975 11 505 0
2018-04-22 13:27:11 GMT 46.982426 1.396320 27,975 11 505 0
2018-04-22 13:27:03 GMT 46.964458 1.390897 28,000 11 505 0
2018-04-22 13:27:00 GMT 46.958035 1.388925 28,000 11 505 0
2018-04-22 13:26:54 GMT 46.942200 1.384140 28,000 11 505 0
2018-04-22 13:26:51 GMT 46.936661 1.382492 28,000 11 505 0
2018-04-22 13:26:48 GMT 46.929199 1.380226 28,000 11 505 0
2018-04-22 13:26:43 GMT 46.918533 1.377068 28,000 11 505 0
2018-04-22 13:26:40 GMT 46.912785 1.375333 28,000 11 504 0
2018-04-22 13:26:37 GMT 46.903240 1.372446 28,000 11 504 0
2018-04-22 13:26:32 GMT 46.892670 1.369308 28,000 11 504 0
2018-04-22 13:26:28 GMT 46.884659 1.366905 28,000 11 504 0
2018-04-22 13:26:21 GMT 46.868004 1.361882 28,000 11 504 0
2018-04-22 13:26:18 GMT 46.861298 1.359901 28,000 11 505 0
2018-04-22 13:26:09 GMT 46.837646 1.352859 27,975 11 505 0
2018-04-22 13:26:02 GMT 46.820847 1.347835 27,975 11 505 0
2018-04-22 13:25:59 GMT 46.815025 1.346100 28,000 11 505 0
2018-04-22 13:25:53 GMT 46.805603 1.343347 27,975 11 505 0
2018-04-22 13:25:48 GMT 46.792355 1.339371 27,975 11 505 0
2018-04-22 13:25:43 GMT 46.781555 1.336143 27,975 11 505 0
2018-04-22 13:25:38 GMT 46.769989 1.332695 27,975 11 505 0
2018-04-22 13:25:35 GMT 46.762421 1.330444 27,975 11 505 -64
2018-04-22 13:25:29 GMT 46.747433 1.325981 27,975 11 505 0
2018-04-22 13:25:23 GMT 46.734741 1.322178 27,975 11 505 0
2018-04-22 13:25:19 GMT 46.726341 1.319664 27,975 11 505 0
2018-04-22 13:25:16 GMT 46.719917 1.317810 27,975 11 505 0
2018-04-22 13:25:13 GMT 46.709335 1.314608 27,975 11 505 0
2018-04-22 13:25:08 GMT 46.701279 1.312263 28,000 11 504 0
2018-04-22 13:25:03 GMT 46.690384 1.308981 27,975 11 505 0
2018-04-22 13:24:59 GMT 46.681328 1.306274 28,000 11 505 0
2018-04-22 13:24:55 GMT 46.671570 1.303354 28,000 11 504 0
2018-04-22 13:24:47 GMT 46.653442 1.297927 28,000 11 504 0
2018-04-22 13:24:43 GMT 46.643478 1.294945 28,000 11 504 0
2018-04-22 13:24:36 GMT 46.628399 1.290413 28,000 10 504 0
2018-04-22 13:24:33 GMT 46.621765 1.288482 28,000 8 504 0
2018-04-22 13:24:28 GMT 46.610825 1.285534 27,975 9 503 0
2018-04-22 13:24:24 GMT 46.598652 1.282516 27,975 8 504 0
2018-04-22 13:24:15 GMT 46.580109 1.278567 27,975 7 503 0
2018-04-22 13:24:12 GMT 46.574257 1.277504 27,975 6 502 0
2018-04-22 13:24:02 GMT 46.550079 1.273275 27,975 6 502 0
2018-04-22 13:23:52 GMT 46.525284 1.269058 27,975 6 502 0
2018-04-22 13:23:45 GMT 46.511925 1.266792 28,000 6 502 0
2018-04-22 13:23:42 GMT 46.504852 1.265571 27,975 6 501 0
2018-04-22 13:23:39 GMT 46.496559 1.264183 28,000 6 502 0
2018-04-22 13:23:35 GMT 46.489105 1.262892 27,975 6 501 0
2018-04-22 13:23:32 GMT 46.480129 1.261368 27,975 6 501 0
2018-04-22 13:23:28 GMT 46.468918 1.259408 27,975 6 501 0
2018-04-22 13:23:25 GMT 46.465073 1.258738 27,975 6 501 0
2018-04-22 13:23:20 GMT 46.452438 1.256595 28,000 6 501 0
2018-04-22 13:23:17 GMT 46.445587 1.255394 28,000 6 501 0
2018-04-22 13:23:13 GMT 46.438187 1.254158 28,000 6 501 0
2018-04-22 13:23:09 GMT 46.428455 1.252441 28,000 6 501 0
2018-04-22 13:22:58 GMT 46.403000 1.248087 28,000 6 501 0
2018-04-22 13:22:48 GMT 46.378784 1.244064 28,000 6 501 0
2018-04-22 13:22:37 GMT 46.353287 1.239713 28,000 6 501 0
2018-04-22 13:22:27 GMT 46.332371 1.236168 28,000 6 501 0
2018-04-22 13:22:24 GMT 46.325016 1.234932 28,000 6 501 0
2018-04-22 13:22:15 GMT 46.303528 1.231340 28,000 6 501 0
2018-04-22 13:22:04 GMT 46.278557 1.227173 28,000 6 501 0
2018-04-22 13:21:54 GMT 46.255692 1.223234 28,000 6 502 0
2018-04-22 13:21:43 GMT 46.229164 1.218727 28,000 6 501 0
2018-04-22 13:21:33 GMT 46.206757 1.214994 28,000 6 501 0
2018-04-22 13:21:22 GMT 46.182861 1.210975 28,000 6 501 64
2018-04-22 13:21:09 GMT 46.152649 1.205950 28,000 6 501 64
2018-04-22 13:21:01 GMT 46.132431 1.202454 28,000 6 501 0
2018-04-22 13:20:51 GMT 46.109478 1.198608 27,975 6 501 0
2018-04-22 13:20:48 GMT 46.104824 1.197853 27,975 6 501 0
2018-04-22 13:20:41 GMT 46.084202 1.194351 27,975 6 501 0
2018-04-22 13:20:37 GMT 46.078720 1.193490 27,975 6 501 -64
2018-04-22 13:20:28 GMT 46.056839 1.189806 28,000 6 500 0
2018-04-22 13:20:18 GMT 46.031693 1.185631 28,000 6 500 0
2018-04-22 13:20:15 GMT 46.027405 1.184983 27,975 6 500 0
2018-04-22 13:20:07 GMT 46.006760 1.181432 27,975 6 500 0
2018-04-22 13:20:02 GMT 45.997696 1.179891 27,975 6 500 0
2018-04-22 13:19:58 GMT 45.989273 1.178552 28,000 6 499 0
2018-04-22 13:19:54 GMT 45.979134 1.176842 27,975 6 499 0
2018-04-22 13:19:46 GMT 45.958557 1.173393 28,000 6 499 0
2018-04-22 13:19:43 GMT 45.953842 1.172657 28,000 6 499 0
2018-04-22 13:19:38 GMT 45.941986 1.170647 27,975 6 499 0
2018-04-22 13:19:35 GMT 45.933094 1.169151 27,975 6 499 0
2018-04-22 13:19:32 GMT 45.930084 1.168704 27,975 6 499 0
2018-04-22 13:19:27 GMT 45.917770 1.166627 28,000 6 499 0
2018-04-22 13:19:22 GMT 45.905136 1.164484 28,000 6 499 0
2018-04-22 13:19:15 GMT 45.890671 1.162072 28,000 6 499 0
2018-04-22 13:19:10 GMT 45.879326 1.160156 28,000 3 498 0
2018-04-22 13:19:04 GMT 45.863823 1.157616 28,000 3 498 0
2018-04-22 13:19:00 GMT 45.856003 1.156311 28,000 3 498 0
2018-04-22 13:18:53 GMT 45.840500 1.154100 28,000 4 499 0
2018-04-22 13:18:50 GMT 45.833939 1.153358 28,000 3 499 0
2018-04-22 13:18:47 GMT 45.826069 1.152603 28,000 3 498 0
2018-04-22 13:18:44 GMT 45.819691 1.152122 28,000 2 498 0
2018-04-22 13:18:39 GMT 45.807907 1.151488 28,000 0 497 0
2018-04-22 13:18:33 GMT 45.793388 1.151161 28,000 0 497 0
2018-04-22 13:18:27 GMT 45.779892 1.151354 28,000 359 497 0
2018-04-22 13:18:24 GMT 45.770859 1.151711 28,000 359 496 0
2018-04-22 13:18:16 GMT 45.753590 1.152534 28,000 358 497 -64
2018-04-22 13:18:12 GMT 45.745926 1.152962 28,000 358 497 0
2018-04-22 13:18:06 GMT 45.732559 1.153631 28,000 358 497 0
2018-04-22 13:18:01 GMT 45.716904 1.154435 28,000 358 497 0
2018-04-22 13:17:56 GMT 45.709625 1.154837 28,000 358 497 0
2018-04-22 13:17:48 GMT 45.687157 1.156036 28,000 358 496 0
2018-04-22 13:17:45 GMT 45.683666 1.156174 28,000 358 496 0
2018-04-22 13:17:42 GMT 45.677078 1.156512 28,000 358 496 0
2018-04-22 13:17:37 GMT 45.665836 1.157135 28,000 358 496 0
2018-04-22 13:17:30 GMT 45.650055 1.157890 28,000 358 496 0
2018-04-22 13:17:19 GMT 45.624252 1.159192 28,000 358 496 64
2018-04-22 13:17:10 GMT 45.601967 1.160362 28,000 358 497 0
2018-04-22 13:16:59 GMT 45.577789 1.161536 28,000 358 496 0
2018-04-22 13:16:56 GMT 45.570602 1.161938 28,000 358 496 0
2018-04-22 13:16:48 GMT 45.552750 1.162809 28,000 358 496 0
2018-04-22 13:16:40 GMT 45.533257 1.163814 28,000 358 496 -128
2018-04-22 13:16:36 GMT 45.525852 1.164149 28,000 358 496 -128
2018-04-22 13:16:30 GMT 45.510452 1.164943 28,000 359 496 0
2018-04-22 13:16:26 GMT 45.501160 1.165401 28,000 359 496 0
2018-04-22 13:16:22 GMT 45.491871 1.165891 28,000 359 497 0
2018-04-22 13:16:14 GMT 45.473236 1.166774 28,000 358 498 0
2018-04-22 13:16:04 GMT 45.452179 1.167886 28,000 358 498 0
2018-04-22 13:15:52 GMT 45.423115 1.169307 27,975 358 498 0
2018-04-22 13:15:45 GMT 45.406818 1.170111 27,975 358 498 0
2018-04-22 13:15:41 GMT 45.399372 1.170513 27,975 358 498 0
2018-04-22 13:15:32 GMT 45.378525 1.171548 28,000 358 498 0
2018-04-22 13:15:29 GMT 45.371815 1.171853 28,000 358 497 0
2018-04-22 13:15:21 GMT 45.352448 1.172858 28,000 358 497 0
2018-04-22 13:15:10 GMT 45.328148 1.174130 28,000 358 496 0
2018-04-22 13:14:59 GMT 45.303223 1.175341 28,000 358 496 0
2018-04-22 13:14:52 GMT 45.285599 1.176274 28,000 359 496 0
2018-04-22 13:14:49 GMT 45.277771 1.176649 28,000 359 496 0
2018-04-22 13:14:38 GMT 45.254360 1.177815 27,975 359 497 128
2018-04-22 13:14:29 GMT 45.232716 1.178887 27,950 358 498 384
2018-04-22 13:14:24 GMT 45.221512 1.179461 27,900 358 498 512
2018-04-22 13:14:19 GMT 45.210556 1.179958 27,825 358 497 1088
2018-04-22 13:14:16 GMT 45.202457 1.180360 27,775 358 497 1088
2018-04-22 13:14:09 GMT 45.185623 1.181226 27,625 358 498 1152
2018-04-22 13:14:05 GMT 45.178162 1.181619 27,550 358 498 1152
2018-04-22 13:14:00 GMT 45.164654 1.182303 27,425 358 498 1280
2018-04-22 13:13:54 GMT 45.152847 1.182861 27,325 358 498 1344
2018-04-22 13:13:46 GMT 45.134628 1.183777 27,150 358 499 1344
2018-04-22 13:13:43 GMT 45.127831 1.184112 27,075 358 499 1344
2018-04-22 13:13:33 GMT 45.103348 1.185385 26,825 358 500 1408
2018-04-22 13:13:26 GMT 45.087097 1.186188 26,650 358 501 1344
2018-04-22 13:13:21 GMT 45.075851 1.186720 26,550 358 501 1280
2018-04-22 13:13:16 GMT 45.064362 1.187308 26,400 358 501 1088
2018-04-22 13:13:12 GMT 45.054466 1.187796 26,400 358 501 1088
2018-04-22 13:13:09 GMT 45.049580 1.188064 26,325 359 501 1088
2018-04-22 13:13:04 GMT 45.037663 1.188600 26,225 359 501 1152
2018-04-22 13:12:59 GMT 45.026211 1.189203 26,125 359 501 1088
2018-04-22 13:12:52 GMT 45.009823 1.190007 25,975 359 501 1216
2018-04-22 13:12:48 GMT 45.000977 1.190409 25,900 359 501 1344
2018-04-22 13:12:43 GMT 44.989334 1.190970 25,650 359 503 1408
2018-04-22 13:12:37 GMT 44.974487 1.191682 25,625 359 503 1472
2018-04-22 13:12:31 GMT 44.959808 1.192409 25,450 358 502 640
2018-04-22 13:12:27 GMT 44.950836 1.192867 25,425 358 503 704
2018-04-22 13:12:22 GMT 44.938889 1.193455 25,325 358 502 832
2018-04-22 13:12:15 GMT 44.924816 1.194160 25,300 358 501 832
2018-04-22 13:12:11 GMT 44.915276 1.194629 25,225 358 501 1216
2018-04-22 13:12:05 GMT 44.899612 1.195417 25,100 358 501 1280
2018-04-22 13:12:00 GMT 44.889252 1.195969 24,925 359 501 1216
2018-04-22 13:11:53 GMT 44.871330 1.196840 24,850 359 501 1216
2018-04-22 13:11:49 GMT 44.862946 1.197248 24,750 359 502 1216
2018-04-22 13:11:41 GMT 44.842987 1.198229 24,575 359 501 768
2018-04-22 13:11:32 GMT 44.824997 1.199079 24,525 359 500 704
2018-04-22 13:11:29 GMT 44.816910 1.199452 24,475 359 499 704
2018-04-22 13:11:17 GMT 44.788559 1.200845 24,300 359 498 1152
2018-04-22 13:11:11 GMT 44.774872 1.201529 24,175 358 498 1280
2018-04-22 13:11:08 GMT 44.768326 1.201891 24,125 358 498 1216
2018-04-22 13:10:57 GMT 44.744102 1.203070 23,900 358 498 1088
2018-04-22 13:10:51 GMT 44.729462 1.203788 23,775 358 498 1152
2018-04-22 13:10:47 GMT 44.720638 1.204209 23,725 358 497 768
2018-04-22 13:10:40 GMT 44.704376 1.205030 23,600 358 497 768
2018-04-22 13:10:35 GMT 44.693687 1.205549 23,550 359 496 896
2018-04-22 13:10:31 GMT 44.682312 1.206076 23,475 359 495 960
2018-04-22 13:10:25 GMT 44.668579 1.206796 23,375 359 494 1024
2018-04-22 13:10:20 GMT 44.658051 1.207254 23,275 359 494 1088
2018-04-22 13:10:13 GMT 44.641407 1.208094 23,150 359 493 1152
2018-04-22 13:10:09 GMT 44.633167 1.208496 23,075 359 493 1152
2018-04-22 13:10:04 GMT 44.621979 1.209019 22,975 358 493 1152
2018-04-22 13:10:00 GMT 44.610405 1.209568 22,875 359 492 1152
2018-04-22 13:09:52 GMT 44.595612 1.210327 22,750 359 492 1152
2018-04-22 13:09:48 GMT 44.585999 1.210785 22,675 359 491 1088
2018-04-22 13:09:43 GMT 44.573582 1.211444 22,575 359 490 704
2018-04-22 13:09:32 GMT 44.550247 1.212551 22,475 359 486 512
2018-04-22 13:09:22 GMT 44.525986 1.213662 22,300 358 482 1152
2018-04-22 13:09:19 GMT 44.520840 1.213922 22,300 358 482 1152
2018-04-22 13:09:12 GMT 44.502365 1.214774 22,125 358 482 1152
2018-04-22 13:09:06 GMT 44.491608 1.215363 22,050 358 481 960
2018-04-22 13:08:59 GMT 44.475037 1.216147 21,925 358 479 1024
2018-04-22 13:08:56 GMT 44.467712 1.216474 21,875 359 478 1088
2018-04-22 13:08:51 GMT 44.454849 1.217128 21,750 359 478 1088
2018-04-22 13:08:43 GMT 44.439465 1.217808 21,625 359 477 1152
2018-04-22 13:08:40 GMT 44.432621 1.218143 21,550 359 476 1472
2018-04-22 13:08:37 GMT 44.426239 1.218436 21,475 358 476 1472
2018-04-22 13:08:28 GMT 44.406647 1.219415 21,275 358 475 1344
2018-04-22 13:08:18 GMT 44.384209 1.220487 21,025 358 474 1344
2018-04-22 13:08:15 GMT 44.378483 1.220755 20,975 358 474 1280
2018-04-22 13:08:08 GMT 44.362419 1.221559 20,850 358 472 1024
2018-04-22 13:07:58 GMT 44.340492 1.222631 20,650 359 469 1408
2018-04-22 13:07:53 GMT 44.328873 1.223210 20,500 358 469 1792
2018-04-22 13:07:48 GMT 44.316879 1.223798 20,325 358 469 1856
2018-04-22 13:07:41 GMT 44.301865 1.224518 20,125 358 469 1600
2018-04-22 13:07:36 GMT 44.292919 1.224976 20,025 358 468 1600
2018-04-22 13:07:30 GMT 44.280487 1.225630 19,875 358 468 1664
2018-04-22 13:07:26 GMT 44.269920 1.226114 19,725 358 467 1600
2018-04-22 13:07:14 GMT 44.246597 1.227320 19,375 359 466 1600
2018-04-22 13:07:11 GMT 44.239708 1.227655 19,375 359 466 1600
2018-04-22 13:07:04 GMT 44.224045 1.228376 19,175 359 465 1536
2018-04-22 13:06:53 GMT 44.200603 1.229464 18,900 359 463 1536
2018-04-22 13:06:44 GMT 44.179962 1.230405 18,650 359 460 1280
2018-04-22 13:06:36 GMT 44.165405 1.231044 18,525 358 456 1216
2018-04-22 13:06:32 GMT 44.155682 1.231450 18,450 359 457 1152
2018-04-22 13:06:23 GMT 44.135056 1.232768 18,225 356 453 1344
2018-04-22 13:06:11 GMT 44.113449 1.235387 18,050 354 447 768
2018-04-22 13:06:02 GMT 44.090553 1.239362 17,850 353 442 1600
2018-04-22 13:05:51 GMT 44.071014 1.242860 17,525 353 441 1856
2018-04-22 13:05:40 GMT 44.048611 1.246883 17,200 353 439 1728
2018-04-22 13:05:28 GMT 44.024643 1.251164 16,850 353 437 1536
2018-04-22 13:05:17 GMT 44.003769 1.254869 16,550 353 434 1728
2018-04-22 13:05:09 GMT 43.986740 1.257871 16,300 353 432 1664
2018-04-22 13:04:58 GMT 43.966324 1.261512 15,975 353 430 2432
2018-04-22 13:04:47 GMT 43.942749 1.265663 15,475 353 431 2432
2018-04-22 13:04:36 GMT 43.922653 1.269240 15,100 353 430 1856
2018-04-22 13:04:26 GMT 43.902439 1.272845 14,800 353 427 1536
2018-04-22 13:04:16 GMT 43.880466 1.276768 14,500 353 422 1792
2018-04-22 13:04:04 GMT 43.860027 1.280365 14,125 353 420 2624
2018-04-22 13:03:54 GMT 43.839268 1.284027 13,600 353 422 3072
2018-04-22 13:03:43 GMT 43.818550 1.287689 13,125 353 422 2432
2018-04-22 13:03:35 GMT 43.803467 1.290370 12,825 353 421 2112
2018-04-22 13:03:31 GMT 43.796677 1.291532 12,700 353 420 2176
2018-04-22 13:03:25 GMT 43.782761 1.294023 12,450 353 419 2368
2018-04-22 13:03:21 GMT 43.776840 1.295013 12,325 353 418 2368
2018-04-22 13:03:10 GMT 43.755753 1.298741 11,850 353 417 2560
2018-04-22 13:03:00 GMT 43.732803 1.302861 11,375 353 415 2496
2018-04-22 13:02:53 GMT 43.722336 1.304754 11,150 353 414 2496
2018-04-22 13:02:47 GMT 43.712128 1.306607 10,925 353 412 2176
2018-04-22 13:02:44 GMT 43.704777 1.307896 10,800 353 410 1728
2018-04-22 13:02:37 GMT 43.691345 1.310311 10,625 353 405 1280
2018-04-22 13:02:24 GMT 43.668793 1.314436 10,375 353 395 832
2018-04-22 13:02:15 GMT 43.653488 1.317210 10,250 353 385 768
2018-04-22 13:02:05 GMT 43.634674 1.320659 10,175 353 371 64
2018-04-22 13:01:55 GMT 43.618011 1.323725 10,150 353 352 128
2018-04-22 13:01:43 GMT 43.600067 1.326918 10,125 353 332 192
2018-04-22 13:01:33 GMT 43.583405 1.329537 10,075 354 309 1536
2018-04-22 13:01:22 GMT 43.568665 1.331709 9,725 354 302 3072
2018-04-22 13:01:11 GMT 43.553436 1.334904 9,175 345 298 2880
2018-04-22 13:01:01 GMT 43.540958 1.341771 8,675 329 294 3520
2018-04-22 13:00:50 GMT 43.529694 1.353934 8,100 315 292 2816
2018-04-22 13:00:44 GMT 43.523529 1.363199 7,825 310 287 2496
2018-04-22 13:00:39 GMT 43.520233 1.368628 7,675 310 285 2368
2018-04-22 13:00:29 GMT 43.511772 1.384277 7,400 300 272 832
2018-04-22 13:00:19 GMT 43.506931 1.401411 7,225 280 253 1408
2018-04-22 13:00:07 GMT 43.506638 1.417492 6,900 261 241 2496
2018-04-22 12:59:56 GMT 43.510933 1.433716 6,350 236 236 2944
2018-04-22 12:59:45 GMT 43.518906 1.445405 5,850 213 229 2560
2018-04-22 12:59:34 GMT 43.530441 1.452048 5,300 188 222 3072
2018-04-22 12:59:22 GMT 43.541061 1.451728 4,775 163 219 3456
2018-04-22 12:59:12 GMT 43.550831 1.445683 4,250 143 218 3776
2018-04-22 12:59:01 GMT 43.559582 1.436528 3,625 142 219 2688
2018-04-22 12:58:51 GMT 43.568008 1.427765 3,000 143 221 3904
2018-04-22 12:58:39 GMT 43.577271 1.418413 2,350 143 222 3328
2018-04-22 12:58:31 GMT 43.584068 1.411678 1,900 144 222 1536
2018-04-22 12:58:28 GMT 43.586533 1.409193 1,825 144 219 512
2018-04-22 12:58:21 GMT 43.592773 1.403046 1,800 144 200 384
2018-04-22 12:58:18 GMT 43.594620 1.401268 1,775 144 194 512

Making use of Plane Finder data

You are free to use the raw flight data, aircraft information and images provided in this report for your own purposes provided the data is correctly attributed to Plane Finder. We ask that you please credit Plane Finder and link to planefinder.net in close proximity to the content.

Optionally one of the following logos (no smaller then 150x24px) can be used and must link to planefinder.net

Embedding the Plane Finder map

You are welcome to embed the Plane Finder playback map on your website to offer visitors a more interactive experience. We suggest using the following HTML code:

<iframe src="//planefinder.net/data/report/AF6127-F-HBNI-7700-squawk-2018-04-22/map" width="800" height="600" seamless="seamless"></iframe>

Where our data comes from

Plane Finder has a global network of data feeds and antenna radars that receive data broadcast directly from aircraft. The primary technologies used are ADS-B and MLAT. We also show feeds from the FAA and a FLARM glider feed.

Click here to find out more about the Plane Finder network.

How we collect our data